sensor_id;sensor_type;location;lat;lon;timestamp;P1;durP1;ratioP1;P2;durP2;ratioP2
40555;SDS011;26250;45.422;11.100;2023-06-19T08:52:42;15.80;;;13.43;;
40555;SDS011;26250;45.422;11.100;2023-06-19T08:55:10;14.57;;;12.90;;
40555;SDS011;26250;45.422;11.100;2023-06-19T08:57:38;18.17;;;13.93;;
40555;SDS011;26250;45.422;11.100;2023-06-19T09:00:06;13.32;;;11.98;;
40555;SDS011;26250;45.422;11.100;2023-06-19T09:02:41;18.05;;;15.93;;
40555;SDS011;26250;45.422;11.100;2023-06-19T09:05:10;18.40;;;16.50;;
40555;SDS011;26250;45.422;11.100;2023-06-19T09:07:42;20.88;;;17.17;;
40555;SDS011;26250;45.422;11.100;2023-06-19T09:12:43;23.77;;;15.45;;
40555;SDS011;26250;45.422;11.100;2023-06-19T09:15:25;60.67;;;14.45;;
40555;SDS011;26250;45.422;11.100;2023-06-19T09:20:29;29.25;;;14.80;;
40555;SDS011;26250;45.422;11.100;2023-06-19T09:23:00;17.95;;;14.80;;
40555;SDS011;26250;45.422;11.100;2023-06-19T09:25:26;16.52;;;14.65;;
40555;SDS011;26250;45.422;11.100;2023-06-19T09:27:54;15.48;;;13.95;;
40555;SDS011;26250;45.422;11.100;2023-06-19T09:30:24;16.58;;;14.82;;
40555;SDS011;26250;45.422;11.100;2023-06-19T09:32:51;27.90;;;14.38;;
40555;SDS011;26250;45.422;11.100;2023-06-19T09:35:18;20.40;;;17.67;;
40555;SDS011;26250;45.422;11.100;2023-06-19T09:37:46;19.13;;;16.38;;
40555;SDS011;26250;45.422;11.100;2023-06-19T09:40:15;20.15;;;16.73;;
40555;SDS011;26250;45.422;11.100;2023-06-19T09:42:43;19.70;;;17.60;;
40555;SDS011;26250;45.422;11.100;2023-06-19T09:45:21;26.25;;;20.98;;
40555;SDS011;26250;45.422;11.100;2023-06-19T09:47:52;22.35;;;17.75;;
40555;SDS011;26250;45.422;11.100;2023-06-19T09:50:31;24.90;;;17.50;;
40555;SDS011;26250;45.422;11.100;2023-06-19T09:53:00;19.35;;;16.02;;
40555;SDS011;26250;45.422;11.100;2023-06-19T09:55:30;16.02;;;14.15;;
40555;SDS011;26250;45.422;11.100;2023-06-19T09:57:58;20.30;;;17.98;;
40555;SDS011;26250;45.422;11.100;2023-06-19T10:00:26;23.65;;;18.25;;
40555;SDS011;26250;45.422;11.100;2023-06-19T10:02:57;21.47;;;16.53;;
40555;SDS011;26250;45.422;11.100;2023-06-19T10:05:30;19.55;;;17.08;;
40555;SDS011;26250;45.422;11.100;2023-06-19T10:07:57;26.35;;;18.20;;
40555;SDS011;26250;45.422;11.100;2023-06-19T10:10:26;27.52;;;16.67;;
40555;SDS011;26250;45.422;11.100;2023-06-19T10:12:59;16.35;;;14.73;;
40555;SDS011;26250;45.422;11.100;2023-06-19T10:15:47;15.13;;;13.15;;
40555;SDS011;26250;45.422;11.100;2023-06-19T10:18:15;15.85;;;14.25;;
40555;SDS011;26250;45.422;11.100;2023-06-19T10:20:44;12.43;;;10.60;;
40555;SDS011;26250;45.422;11.100;2023-06-19T10:23:15;15.57;;;13.73;;
40555;SDS011;26250;45.422;11.100;2023-06-19T10:25:47;15.90;;;11.73;;
40555;SDS011;26250;45.422;11.100;2023-06-19T10:28:18;19.23;;;14.45;;
40555;SDS011;26250;45.422;11.100;2023-06-19T10:30:56;16.33;;;12.35;;
40555;SDS011;26250;45.422;11.100;2023-06-19T10:33:25;16.83;;;14.85;;
40555;SDS011;26250;45.422;11.100;2023-06-19T10:35:54;14.75;;;13.30;;
40555;SDS011;26250;45.422;11.100;2023-06-19T10:38:21;20.00;;;14.82;;
40555;SDS011;26250;45.422;11.100;2023-06-19T10:40:48;12.05;;;10.95;;
40555;SDS011;26250;45.422;11.100;2023-06-19T10:43:21;18.00;;;12.32;;
40555;SDS011;26250;45.422;11.100;2023-06-19T10:45:51;14.25;;;12.10;;
40555;SDS011;26250;45.422;11.100;2023-06-19T10:48:24;14.98;;;13.48;;
40555;SDS011;26250;45.422;11.100;2023-06-19T10:50:51;17.60;;;14.40;;
40555;SDS011;26250;45.422;11.100;2023-06-19T10:53:26;15.30;;;12.35;;
40555;SDS011;26250;45.422;11.100;2023-06-19T10:55:57;14.27;;;12.88;;
40555;SDS011;26250;45.422;11.100;2023-06-19T10:58:25;14.68;;;10.95;;
40555;SDS011;26250;45.422;11.100;2023-06-19T11:00:53;16.95;;;13.65;;
40555;SDS011;26250;45.422;11.100;2023-06-19T11:03:20;14.55;;;12.85;;
40555;SDS011;26250;45.422;11.100;2023-06-19T11:05:48;19.00;;;12.40;;
40555;SDS011;26250;45.422;11.100;2023-06-19T11:08:19;10.20;;;8.75;;
40555;SDS011;26250;45.422;11.100;2023-06-19T11:10:47;11.00;;;9.98;;
40555;SDS011;26250;45.422;11.100;2023-06-19T11:13:15;15.43;;;12.70;;
40555;SDS011;26250;45.422;11.100;2023-06-19T11:15:47;11.15;;;9.98;;
40555;SDS011;26250;45.422;11.100;2023-06-19T11:18:19;14.13;;;9.70;;
40555;SDS011;26250;45.422;11.100;2023-06-19T11:20:47;10.15;;;8.13;;
40555;SDS011;26250;45.422;11.100;2023-06-19T11:23:17;10.40;;;9.38;;
40555;SDS011;26250;45.422;11.100;2023-06-19T11:26:05;9.17;;;8.37;;
40555;SDS011;26250;45.422;11.100;2023-06-19T11:28:32;8.40;;;7.55;;
40555;SDS011;26250;45.422;11.100;2023-06-19T11:31:00;11.82;;;9.00;;
40555;SDS011;26250;45.422;11.100;2023-06-19T11:33:30;9.38;;;8.45;;
40555;SDS011;26250;45.422;11.100;2023-06-19T11:35:59;8.18;;;7.38;;
40555;SDS011;26250;45.422;11.100;2023-06-19T11:38:28;11.57;;;7.78;;
40555;SDS011;26250;45.422;11.100;2023-06-19T11:40:55;11.77;;;8.38;;
40555;SDS011;26250;45.422;11.100;2023-06-19T11:43:27;8.05;;;7.07;;
40555;SDS011;26250;45.422;11.100;2023-06-19T11:46:07;15.02;;;6.78;;
40555;SDS011;26250;45.422;11.100;2023-06-19T11:48:37;7.70;;;7.00;;
40555;SDS011;26250;45.422;11.100;2023-06-19T11:51:04;7.32;;;6.63;;
40555;SDS011;26250;45.422;11.100;2023-06-19T11:53:33;11.90;;;8.35;;
40555;SDS011;26250;45.422;11.100;2023-06-19T11:56:00;12.15;;;7.22;;
40555;SDS011;26250;45.422;11.100;2023-06-19T11:58:28;7.88;;;6.97;;
40555;SDS011;26250;45.422;11.100;2023-06-19T12:00:55;12.68;;;7.50;;
40555;SDS011;26250;45.422;11.100;2023-06-19T12:03:22;12.20;;;7.45;;
40555;SDS011;26250;45.422;11.100;2023-06-19T12:05:50;8.57;;;7.55;;
40555;SDS011;26250;45.422;11.100;2023-06-19T12:08:17;9.45;;;6.50;;
40555;SDS011;26250;45.422;11.100;2023-06-19T12:10:47;7.70;;;6.53;;
40555;SDS011;26250;45.422;11.100;2023-06-19T12:13:14;9.48;;;7.45;;
40555;SDS011;26250;45.422;11.100;2023-06-19T12:15:41;8.60;;;5.82;;
40555;SDS011;26250;45.422;11.100;2023-06-19T12:18:11;14.30;;;6.43;;
40555;SDS011;26250;45.422;11.100;2023-06-19T12:20:38;8.68;;;6.57;;
40555;SDS011;26250;45.422;11.100;2023-06-19T12:23:05;7.95;;;7.20;;
40555;SDS011;26250;45.422;11.100;2023-06-19T12:25:32;9.18;;;6.78;;
40555;SDS011;26250;45.422;11.100;2023-06-19T13:48:21;7.43;;;4.90;;
40555;SDS011;26250;45.422;11.100;2023-06-19T13:50:51;15.05;;;6.20;;
40555;SDS011;26250;45.422;11.100;2023-06-19T13:53:18;6.63;;;5.10;;
40555;SDS011;26250;45.422;11.100;2023-06-19T13:55:48;7.07;;;5.03;;
40555;SDS011;26250;45.422;11.100;2023-06-19T13:58:15;10.38;;;5.78;;
40555;SDS011;26250;45.422;11.100;2023-06-19T14:00:42;5.40;;;4.90;;
40555;SDS011;26250;45.422;11.100;2023-06-19T14:03:13;7.60;;;4.57;;
40555;SDS011;26250;45.422;11.100;2023-06-19T14:05:40;6.43;;;5.18;;
40555;SDS011;26250;45.422;11.100;2023-06-19T14:08:07;6.10;;;5.10;;
40555;SDS011;26250;45.422;11.100;2023-06-19T14:10:35;7.00;;;5.50;;
40555;SDS011;26250;45.422;11.100;2023-06-19T14:13:02;5.90;;;5.07;;
40555;SDS011;26250;45.422;11.100;2023-06-19T14:15:29;5.72;;;4.45;;
40555;SDS011;26250;45.422;11.100;2023-06-19T14:17:56;7.93;;;5.15;;
40555;SDS011;26250;45.422;11.100;2023-06-19T14:20:23;9.55;;;5.13;;
40555;SDS011;26250;45.422;11.100;2023-06-19T14:22:50;7.03;;;4.70;;
40555;SDS011;26250;45.422;11.100;2023-06-19T14:25:17;9.70;;;4.55;;
40555;SDS011;26250;45.422;11.100;2023-06-19T14:27:44;9.98;;;4.93;;
40555;SDS011;26250;45.422;11.100;2023-06-19T14:30:11;5.80;;;4.80;;
40555;SDS011;26250;45.422;11.100;2023-06-19T14:32:41;6.07;;;5.00;;
40555;SDS011;26250;45.422;11.100;2023-06-19T14:35:08;8.98;;;4.95;;
40555;SDS011;26250;45.422;11.100;2023-06-19T14:37:35;10.00;;;4.63;;
40555;SDS011;26250;45.422;11.100;2023-06-19T14:40:02;6.55;;;4.68;;
40555;SDS011;26250;45.422;11.100;2023-06-19T14:42:29;16.02;;;4.78;;
40555;SDS011;26250;45.422;11.100;2023-06-19T14:44:56;7.50;;;5.25;;
40555;SDS011;26250;45.422;11.100;2023-06-19T14:47:23;5.45;;;4.57;;
40555;SDS011;26250;45.422;11.100;2023-06-19T14:49:51;9.73;;;5.32;;
40555;SDS011;26250;45.422;11.100;2023-06-19T14:52:21;7.00;;;4.22;;
40555;SDS011;26250;45.422;11.100;2023-06-19T14:54:48;5.38;;;3.38;;
40555;SDS011;26250;45.422;11.100;2023-06-19T14:57:15;5.43;;;4.50;;
40555;SDS011;26250;45.422;11.100;2023-06-19T14:59:44;7.47;;;4.47;;
40555;SDS011;26250;45.422;11.100;2023-06-19T15:02:11;6.32;;;4.63;;
40555;SDS011;26250;45.422;11.100;2023-06-19T15:04:38;8.18;;;4.65;;
40555;SDS011;26250;45.422;11.100;2023-06-19T15:07:07;6.32;;;4.55;;
40555;SDS011;26250;45.422;11.100;2023-06-19T15:09:34;4.63;;;4.07;;
40555;SDS011;26250;45.422;11.100;2023-06-19T15:12:01;6.90;;;4.78;;
40555;SDS011;26250;45.422;11.100;2023-06-19T15:14:28;5.40;;;4.25;;
40555;SDS011;26250;45.422;11.100;2023-06-19T15:16:55;7.88;;;5.07;;
40555;SDS011;26250;45.422;11.100;2023-06-19T15:19:25;5.32;;;4.82;;
40555;SDS011;26250;45.422;11.100;2023-06-19T15:21:52;6.05;;;5.45;;
40555;SDS011;26250;45.422;11.100;2023-06-19T15:24:19;5.80;;;4.82;;
40555;SDS011;26250;45.422;11.100;2023-06-19T15:26:47;8.95;;;5.00;;
40555;SDS011;26250;45.422;11.100;2023-06-19T15:29:14;9.40;;;4.78;;
40555;SDS011;26250;45.422;11.100;2023-06-19T15:31:41;7.03;;;4.95;;
40555;SDS011;26250;45.422;11.100;2023-06-19T15:34:08;5.65;;;4.30;;
40555;SDS011;26250;45.422;11.100;2023-06-19T15:36:35;5.97;;;5.00;;
40555;SDS011;26250;45.422;11.100;2023-06-19T15:39:05;6.32;;;4.78;;
40555;SDS011;26250;45.422;11.100;2023-06-19T15:41:32;5.65;;;3.83;;
40555;SDS011;26250;45.422;11.100;2023-06-19T15:43:58;8.52;;;4.55;;
40555;SDS011;26250;45.422;11.100;2023-06-19T15:46:27;6.80;;;4.80;;
40555;SDS011;26250;45.422;11.100;2023-06-19T15:48:54;5.85;;;4.18;;
40555;SDS011;26250;45.422;11.100;2023-06-19T15:51:21;9.07;;;4.90;;
40555;SDS011;26250;45.422;11.100;2023-06-19T15:53:48;7.03;;;4.32;;
40555;SDS011;26250;45.422;11.100;2023-06-19T15:56:17;8.25;;;4.93;;
40555;SDS011;26250;45.422;11.100;2023-06-19T15:58:44;6.63;;;4.80;;
40555;SDS011;26250;45.422;11.100;2023-06-19T16:01:11;6.60;;;4.32;;
40555;SDS011;26250;45.422;11.100;2023-06-19T16:03:38;5.30;;;3.97;;
40555;SDS011;26250;45.422;11.100;2023-06-19T16:06:05;6.95;;;4.53;;
40555;SDS011;26250;45.422;11.100;2023-06-19T16:08:34;7.13;;;4.45;;
40555;SDS011;26250;45.422;11.100;2023-06-19T16:11:01;4.70;;;4.22;;
40555;SDS011;26250;45.422;11.100;2023-06-19T16:13:31;9.77;;;5.13;;
40555;SDS011;26250;45.422;11.100;2023-06-19T16:15:58;5.28;;;4.28;;
40555;SDS011;26250;45.422;11.100;2023-06-19T16:18:25;4.85;;;4.45;;
40555;SDS011;26250;45.422;11.100;2023-06-19T16:20:52;15.75;;;4.32;;
40555;SDS011;26250;45.422;11.100;2023-06-19T16:23:19;12.85;;;4.88;;
40555;SDS011;26250;45.422;11.100;2023-06-19T16:25:49;5.82;;;4.80;;
40555;SDS011;26250;45.422;11.100;2023-06-19T16:28:16;6.85;;;5.00;;
40555;SDS011;26250;45.422;11.100;2023-06-19T16:30:43;10.38;;;4.60;;
40555;SDS011;26250;45.422;11.100;2023-06-19T16:33:12;11.73;;;5.15;;
40555;SDS011;26250;45.422;11.100;2023-06-19T16:35:39;5.07;;;3.60;;
40555;SDS011;26250;45.422;11.100;2023-06-19T16:38:06;9.55;;;5.35;;
40555;SDS011;26250;45.422;11.100;2023-06-19T16:40:33;7.18;;;4.35;;
40555;SDS011;26250;45.422;11.100;2023-06-19T16:43:00;5.20;;;4.10;;
40555;SDS011;26250;45.422;11.100;2023-06-19T16:45:27;5.45;;;4.95;;
40555;SDS011;26250;45.422;11.100;2023-06-19T16:47:54;6.10;;;4.55;;
40555;SDS011;26250;45.422;11.100;2023-06-19T16:50:22;5.97;;;4.75;;
40555;SDS011;26250;45.422;11.100;2023-06-19T16:52:49;17.27;;;5.60;;
40555;SDS011;26250;45.422;11.100;2023-06-19T16:55:16;9.13;;;5.68;;
40555;SDS011;26250;45.422;11.100;2023-06-19T16:57:44;5.50;;;4.88;;
40555;SDS011;26250;45.422;11.100;2023-06-19T17:00:13;7.57;;;4.28;;
40555;SDS011;26250;45.422;11.100;2023-06-19T17:02:40;6.70;;;5.20;;
40555;SDS011;26250;45.422;11.100;2023-06-19T17:05:08;5.68;;;4.35;;
40555;SDS011;26250;45.422;11.100;2023-06-19T17:07:35;5.68;;;4.13;;
40555;SDS011;26250;45.422;11.100;2023-06-19T17:10:04;7.00;;;4.13;;
40555;SDS011;26250;45.422;11.100;2023-06-19T17:12:32;6.45;;;4.38;;
40555;SDS011;26250;45.422;11.100;2023-06-19T17:14:59;9.52;;;4.40;;
40555;SDS011;26250;45.422;11.100;2023-06-19T17:17:29;18.10;;;4.93;;
40555;SDS011;26250;45.422;11.100;2023-06-19T17:20:01;5.13;;;4.63;;
40555;SDS011;26250;45.422;11.100;2023-06-19T17:22:29;7.20;;;4.70;;
40555;SDS011;26250;45.422;11.100;2023-06-19T17:24:56;9.05;;;4.97;;
40555;SDS011;26250;45.422;11.100;2023-06-19T17:27:23;5.90;;;4.80;;
40555;SDS011;26250;45.422;11.100;2023-06-19T17:29:50;5.38;;;4.32;;
40555;SDS011;26250;45.422;11.100;2023-06-19T17:32:17;5.95;;;4.55;;
40555;SDS011;26250;45.422;11.100;2023-06-19T17:34:44;5.40;;;4.20;;
40555;SDS011;26250;45.422;11.100;2023-06-19T17:37:14;14.90;;;5.07;;
40555;SDS011;26250;45.422;11.100;2023-06-19T17:39:41;7.07;;;4.60;;
40555;SDS011;26250;45.422;11.100;2023-06-19T17:42:08;6.53;;;4.60;;
40555;SDS011;26250;45.422;11.100;2023-06-19T17:44:36;8.55;;;4.82;;
40555;SDS011;26250;45.422;11.100;2023-06-19T17:47:03;5.45;;;4.28;;
40555;SDS011;26250;45.422;11.100;2023-06-19T17:49:30;9.85;;;4.78;;
40555;SDS011;26250;45.422;11.100;2023-06-19T17:51:57;9.77;;;4.30;;
40555;SDS011;26250;45.422;11.100;2023-06-19T17:54:24;5.25;;;4.45;;
40555;SDS011;26250;45.422;11.100;2023-06-19T17:56:51;9.48;;;4.13;;
40555;SDS011;26250;45.422;11.100;2023-06-19T17:59:18;5.47;;;4.90;;
40555;SDS011;26250;45.422;11.100;2023-06-19T18:01:46;5.20;;;4.68;;
40555;SDS011;26250;45.422;11.100;2023-06-19T18:04:13;6.55;;;4.40;;
40555;SDS011;26250;45.422;11.100;2023-06-19T18:06:40;8.30;;;4.70;;
40555;SDS011;26250;45.422;11.100;2023-06-19T18:09:07;7.10;;;5.07;;
40555;SDS011;26250;45.422;11.100;2023-06-19T18:11:34;9.80;;;5.10;;
40555;SDS011;26250;45.422;11.100;2023-06-19T18:14:01;8.07;;;5.15;;
40555;SDS011;26250;45.422;11.100;2023-06-19T18:16:28;10.15;;;5.70;;
40555;SDS011;26250;45.422;11.100;2023-06-19T18:18:55;5.68;;;4.50;;
40555;SDS011;26250;45.422;11.100;2023-06-19T18:21:22;5.10;;;4.60;;
40555;SDS011;26250;45.422;11.100;2023-06-19T18:23:49;9.45;;;6.47;;
40555;SDS011;26250;45.422;11.100;2023-06-19T18:26:16;11.07;;;5.30;;
40555;SDS011;26250;45.422;11.100;2023-06-19T18:28:43;8.40;;;4.55;;
40555;SDS011;26250;45.422;11.100;2023-06-19T18:31:10;6.03;;;4.82;;
40555;SDS011;26250;45.422;11.100;2023-06-19T18:33:40;9.18;;;4.32;;
40555;SDS011;26250;45.422;11.100;2023-06-19T18:36:07;13.13;;;5.40;;
40555;SDS011;26250;45.422;11.100;2023-06-19T18:38:34;5.88;;;4.95;;
40555;SDS011;26250;45.422;11.100;2023-06-19T18:41:01;8.10;;;5.50;;
40555;SDS011;26250;45.422;11.100;2023-06-19T18:43:28;13.75;;;5.80;;
40555;SDS011;26250;45.422;11.100;2023-06-19T18:45:58;12.25;;;5.10;;
40555;SDS011;26250;45.422;11.100;2023-06-19T18:48:25;4.93;;;4.40;;
40555;SDS011;26250;45.422;11.100;2023-06-19T18:50:52;5.75;;;5.05;;
40555;SDS011;26250;45.422;11.100;2023-06-19T18:53:19;6.10;;;4.50;;
40555;SDS011;26250;45.422;11.100;2023-06-19T18:55:46;6.80;;;4.88;;
40555;SDS011;26250;45.422;11.100;2023-06-19T18:58:13;6.25;;;5.03;;
40555;SDS011;26250;45.422;11.100;2023-06-19T19:00:40;7.28;;;4.65;;
40555;SDS011;26250;45.422;11.100;2023-06-19T19:03:07;6.43;;;5.05;;
40555;SDS011;26250;45.422;11.100;2023-06-19T19:05:34;5.50;;;5.10;;
40555;SDS011;26250;45.422;11.100;2023-06-19T19:08:02;7.18;;;5.38;;
40555;SDS011;26250;45.422;11.100;2023-06-19T19:10:29;17.30;;;5.28;;
40555;SDS011;26250;45.422;11.100;2023-06-19T19:12:56;13.10;;;5.22;;
40555;SDS011;26250;45.422;11.100;2023-06-19T19:15:23;7.47;;;5.22;;
40555;SDS011;26250;45.422;11.100;2023-06-19T19:17:53;10.20;;;5.55;;
40555;SDS011;26250;45.422;11.100;2023-06-19T19:20:20;11.13;;;5.57;;
40555;SDS011;26250;45.422;11.100;2023-06-19T19:22:47;7.07;;;4.80;;
40555;SDS011;26250;45.422;11.100;2023-06-19T19:25:14;8.02;;;5.60;;
40555;SDS011;26250;45.422;11.100;2023-06-19T19:27:41;7.32;;;4.82;;
40555;SDS011;26250;45.422;11.100;2023-06-19T19:30:08;6.22;;;5.40;;
40555;SDS011;26250;45.422;11.100;2023-06-19T19:32:36;17.63;;;5.05;;
40555;SDS011;26250;45.422;11.100;2023-06-19T19:35:03;6.00;;;4.65;;
40555;SDS011;26250;45.422;11.100;2023-06-19T19:37:31;5.93;;;4.70;;
40555;SDS011;26250;45.422;11.100;2023-06-19T19:39:58;8.63;;;5.32;;
40555;SDS011;26250;45.422;11.100;2023-06-19T19:42:26;6.53;;;4.82;;
40555;SDS011;26250;45.422;11.100;2023-06-19T19:44:53;5.93;;;5.28;;
40555;SDS011;26250;45.422;11.100;2023-06-19T19:47:20;11.18;;;6.47;;
40555;SDS011;26250;45.422;11.100;2023-06-19T19:49:48;5.90;;;5.38;;
40555;SDS011;26250;45.422;11.100;2023-06-19T19:52:16;6.32;;;5.72;;
40555;SDS011;26250;45.422;11.100;2023-06-19T19:54:43;12.35;;;6.78;;
40555;SDS011;26250;45.422;11.100;2023-06-19T19:57:10;18.63;;;6.85;;
40555;SDS011;26250;45.422;11.100;2023-06-19T19:59:36;10.60;;;6.20;;
40555;SDS011;26250;45.422;11.100;2023-06-19T20:02:04;5.70;;;5.15;;
40555;SDS011;26250;45.422;11.100;2023-06-19T20:04:36;15.88;;;5.60;;
40555;SDS011;26250;45.422;11.100;2023-06-19T20:07:07;7.95;;;6.05;;
40555;SDS011;26250;45.422;11.100;2023-06-19T20:09:34;5.53;;;5.03;;
40555;SDS011;26250;45.422;11.100;2023-06-19T20:12:01;9.23;;;5.45;;
40555;SDS011;26250;45.422;11.100;2023-06-19T20:14:46;8.85;;;5.55;;
40555;SDS011;26250;45.422;11.100;2023-06-19T20:17:13;11.30;;;6.57;;
40555;SDS011;26250;45.422;11.100;2023-06-19T20:19:40;28.20;;;6.30;;
40555;SDS011;26250;45.422;11.100;2023-06-19T20:22:07;22.90;;;6.15;;
40555;SDS011;26250;45.422;11.100;2023-06-19T20:24:34;6.78;;;5.15;;
40555;SDS011;26250;45.422;11.100;2023-06-19T20:27:01;7.30;;;5.85;;
40555;SDS011;26250;45.422;11.100;2023-06-19T20:29:28;7.18;;;6.20;;
